Monday, June 27, 2016
11:15 UTC
  |  Log In   |  Register Free
Airport Search:

Skyway Estates Airport
(60G)

Skyway Estates Airport Diagram
No Airport Diagram Available

FAA data valid effective May 26 2016 - Jul 21 2016 (unless otherwise noted).

 
 
 
 
 
 
 
 
 
 
 
 
 
 
Current Aviation Weather for 60G

Weather Summary


Current weather conditions are not available for 60G - The nearest NOAA weather station is at FPK, (7.1 nm SW from 60G)

The most recent METAR observation for 60G was updated at: 12:55 UTC
METAR for 60G is not available. Closest METAR is for KTEW 10.1 nm NW
KTEW  (10.1 nm NW)   (most recent observation was updated at 27:10 UTC)
271054Z AUTO 23004KT 10SM CLR 20/18 A2999 RMK AO2 T01970177

KLAN  (12.1 nm SW)   (most recent observation was updated at 27:10 UTC)
271053Z 25005KT 10SM CLR 21/17 A2999 RMK AO2 SLP149 T02060167

TAF for 60G is not available.
KLAN  (12.1 nm SW)   (most recent observation was updatred at 27:05 UTC)
270540Z 2706/2806 25008KT P6SM SKC FM271500 26014G22KT P6SM SKC FM272100 29014G22KT P6SM BKN050 FM280100 30010KT P6SM OVC050


KJXN  (21.2 nm NW)   (most recent observation was updatred at 27:08 UTC)
AMD 270824Z 2708/2806 26005KT P6SM SKC FM271500 26014G22KT P6SM SKC FM272200 29014G22KT P6SM SCT050 FM280100 31008KT P6SM BKN050


KBTL  (31.3 nm NE)   (most recent observation was updatred at 27:05 UTC)
270540Z 2706/2806 25005KT P6SM BKN200 FM271500 26014G22KT P6SM SKC FM272100 29014G22KT P6SM SCT050 FM280100 31008KT P6SM BKN050
GlobalAir.com is loading additional information.
 Current Weather at FPK
66.0 F° (18.8 C°)

North winds at 0.0 mph
Pressure:
29.98 in
Humidity:
92%
Wind:
North at 0.0 mph
Dew Point:
63.3 F° (17.4 C°)
Visibility:
7.00 mi
60G NOAA Radar




Find All Airport Services Find A Hotel Find A Rental Car Find A Golf Course Find A Restaurant $100 Hamburger



Airport Weather Forecast for 60G

Translated METAR for KFPK (1054 UTC)
METAR:
KFPK 271054Z AUTO 25004KT 10SM CLR 19/17 A2999 RMK AO2 T01930173
Conditions at:
KFPK (Fitch H Beach, MI) observed 1054 UTC 27 June 2016
Temperature:
19°C (66.2°F)
Dewpoint:
17°C (62.6°F) [RH = 88.2]
Pressure:
29.99 inches Hg (1015.6 mb)
Winds:
from the WSW (250 degrees) at 4.6 mph (4 knots: 2.1 m/s)
Visibility:
10 mile(s)
Ceiling:
at least 12,000 feet AGL
Clouds:
Clear below 12,000 feet AGL
Remarks:
site is un-manned
site is automated and HAS a precipitation sensor

Translated TAF for KLAN (Capital Region Intl, MI) (0540 UTC)
TAF text:
KLAN 270540Z 2706/2806 25008KT P6SM SKC
Forecast period:
Monday Jun 27 2016 06:00 UTC - Tuesday Jun 28 2016 06:00 UTC
Forecast type:
FROM: standard forecast or significant change
Winds:
from the WSW (250 degrees) at 9.2 mph (8 knots: 4.1 m/s)
Visibility:
6 or more mile(s) (9.7+ km)
Ceiling:
at least 12,000 feet AGL
Clouds:
Clear Skies
Weather:
no significant weather observed at this time
TAF text:
FM271500 26014G22KT P6SM SKC
Forecast period:
Monday Jun 27 2016 15:00 UTC - Monday Jun 27 2016 21:00 UTC
Forecast type:
FROM: standard forecast or significant change
Winds:
from the W (260 degrees) at 16.1 mph (14 knots: 7.2 m/s)
gusting to 25.3 mph (22 knots: 11.3 m/s)
Visibility:
6 or more mile(s) (9.7+ km)
Ceiling:
at least 12,000 feet AGL
Clouds:
Clear Skies
Weather:
no significant weather observed at this time
TAF text:
FM272100 29014G22KT P6SM BKN050
Forecast period:
Monday Jun 27 2016 21:00 UTC - Tuesday Jun 28 2016 01:00 UTC
Forecast type:
FROM: standard forecast or significant change
Winds:
from the WNW (290 degrees) at 16.1 mph (14 knots: 7.2 m/s)
gusting to 25.3 mph (22 knots: 11.3 m/s)
Visibility:
6 or more mile(s) (9.7+ km)
Ceiling:
5,000 feet AGL
Clouds:
Broken Cloud Cover at 5,000 feet AGL
Weather:
no significant weather observed at this time
TAF text:
FM280100 30010KT P6SM OVC050
Forecast period:
Tuesday Jun 28 2016 01:00 UTC - Tuesday Jun 28 2016 06:00 UTC
Forecast type:
FROM: standard forecast or significant change
Winds:
from the WNW (300 degrees) at 11.5 mph (10 knots: 5.1 m/s)
Visibility:
6 or more mile(s) (9.7+ km)
Ceiling:
5,000 feet AGL
Clouds:
Overcast Skies at 5,000 feet AGL
Weather:
no significant weather observed at this time
FBO's on the Field
FBO Company Facility Photos Services Transportation Aviation Fuel Prices: Prices include tax
Catering Weather Repair Courtesy Rental Type 100LL JetA JetA+ MOGAS 8087
 
Add another FBO Facility Photos Catering Weather Repair Courtesy Rental Type 100LL JetA JetA+ MOGAS 8087
Services Transportation Aviation Fuel Prices: Prices include tax
There are no FBO's currently reporting fuel at 60G. List your FBO now


model-print
model-print
model-print
model-print